Time;durP1;ratioP1;P1;durP2;ratioP2;P2;SDS_P1;SDS_P2;PMS_P1;PMS_P2;Temp;Humidity;BMP_temperature;BMP_pressure;BME280_temperature;BME280_humidity;BME280_pressure;Samples;Min_cycle;Max_cycle;Signal;HPM_P1;HPM_P2
2021/12/01 00:00:17;;;;;;;11.57;1.80;;;;;;;4.51;100.00;96696.19;5078205;28;20054;-77
2021/12/01 00:02:43;;;;;;;9.35;1.65;;;;;;;4.50;100.00;96691.91;5078301;28;20069;-78
2021/12/01 00:05:11;;;;;;;9.00;1.65;;;;;;;4.48;100.00;96693.31;5076974;28;20059;-77
2021/12/01 00:07:38;;;;;;;7.75;1.45;;;;;;;4.52;100.00;96689.72;5077261;28;20052;-77
2021/12/01 00:10:09;;;;;;;3.70;1.23;;;;;;;4.54;100.00;96692.94;5077469;28;20143;-78
2021/12/01 00:12:36;;;;;;;5.82;1.33;;;;;;;4.47;100.00;96681.00;5078361;28;20048;-77
2021/12/01 00:15:05;;;;;;;6.55;0.95;;;;;;;4.45;100.00;96678.63;5077900;28;20097;-78
2021/12/01 00:17:31;;;;;;;2.05;0.60;;;;;;;4.50;100.00;96677.72;5096346;28;20036;-77
2021/12/01 00:19:59;;;;;;;2.38;0.70;;;;;;;4.48;100.00;96672.69;5078314;28;20551;-77
2021/12/01 00:22:27;;;;;;;2.33;0.73;;;;;;;4.52;100.00;96675.56;5078600;28;20048;-78
2021/12/01 00:24:54;;;;;;;3.88;0.95;;;;;;;4.52;100.00;96670.19;5077796;28;20046;-77
2021/12/01 00:27:21;;;;;;;4.97;1.60;;;;;;;4.56;100.00;96657.78;5079034;28;20052;-78
2021/12/01 00:29:50;;;;;;;3.90;1.23;;;;;;;4.52;100.00;96660.25;5077970;28;20048;-77
2021/12/01 00:32:17;;;;;;;3.70;1.70;;;;;;;4.52;100.00;96660.25;5077223;28;20052;-78
2021/12/01 00:34:44;;;;;;;4.85;2.25;;;;;;;4.58;100.00;96653.69;5075459;28;20064;-77
2021/12/01 00:37:11;;;;;;;5.35;2.72;;;;;;;4.49;100.00;96646.69;5076397;28;20519;-78
2021/12/01 00:39:38;;;;;;;4.97;2.60;;;;;;;4.51;100.00;96645.28;5076702;28;20066;-78
2021/12/01 00:42:06;;;;;;;4.43;2.63;;;;;;;4.61;100.00;96645.06;5076890;28;20154;-79
2021/12/01 00:44:35;;;;;;;3.50;2.33;;;;;;;4.54;100.00;96639.34;5075891;28;20040;-78
2021/12/01 00:49:35;;;;;;;4.03;2.60;;;;;;;4.60;100.00;96634.63;5093174;28;20081;-77
2021/12/01 00:52:02;;;;;;;4.50;2.60;;;;;;;4.55;100.00;96630.19;5076145;28;20048;-78
2021/12/01 00:54:29;;;;;;;3.83;2.67;;;;;;;4.57;100.00;96632.56;5077421;28;20415;-78
2021/12/01 00:56:55;;;;;;;6.40;2.65;;;;;;;4.55;100.00;96635.53;5076872;28;20078;-78
2021/12/01 00:59:22;;;;;;;4.88;2.53;;;;;;;4.59;100.00;96633.88;5076578;28;20036;-77
2021/12/01 01:01:50;;;;;;;4.25;2.50;;;;;;;4.64;100.00;96625.72;5075899;28;20047;-78
2021/12/01 01:04:17;;;;;;;5.80;2.72;;;;;;;4.64;100.00;96622.22;5077105;28;20054;-77
2021/12/01 01:06:44;;;;;;;5.28;2.90;;;;;;;4.67;100.00;96616.28;5077877;28;20052;-77
2021/12/01 01:09:11;;;;;;;5.85;3.20;;;;;;;4.58;100.00;96618.88;5077128;28;20048;-78
2021/12/01 01:17:19;;;;;;;3.35;2.25;;;;;;;4.68;100.00;96618.63;5102085;28;20044;-78
2021/12/01 01:19:45;;;;;;;4.80;1.73;;;;;;;4.64;100.00;96620.34;5069536;28;20048;-77
2021/12/01 01:22:12;;;;;;;3.70;1.60;;;;;;;4.67;100.00;96618.97;5056947;28;20492;-77
2021/12/01 01:24:39;;;;;;;4.63;1.63;;;;;;;4.72;100.00;96613.47;5056085;28;20452;-78
2021/12/01 01:27:06;;;;;;;2.55;1.70;;;;;;;4.69;100.00;96612.19;5056790;28;20258;-76
2021/12/01 01:29:36;;;;;;;3.75;1.70;;;;;;;4.75;100.00;96605.59;5064433;28;20032;-79
2021/12/01 01:32:03;;;;;;;7.03;2.60;;;;;;;4.79;100.00;96592.41;5060368;28;20465;-77
2021/12/01 01:34:31;;;;;;;5.05;3.15;;;;;;;4.83;100.00;96594.16;5056639;28;20040;-78
2021/12/01 01:36:58;;;;;;;5.15;3.83;;;;;;;4.83;100.00;96586.13;5056920;28;20056;-77
2021/12/01 01:39:25;;;;;;;5.65;3.80;;;;;;;4.74;100.00;96585.28;5056688;28;20036;-77
2021/12/01 01:41:54;;;;;;;7.35;4.82;;;;;;;4.80;100.00;96570.63;5061123;28;20053;-78
2021/12/01 01:44:21;;;;;;;9.38;5.93;;;;;;;4.83;100.00;96575.41;5068034;28;20063;-78
2021/12/01 01:46:48;;;;;;;13.27;7.97;;;;;;;4.91;100.00;96565.84;5056471;28;20056;-78
2021/12/01 01:49:19;;;;;;;14.82;8.68;;;;;;;4.80;100.00;96569.88;5056499;28;20079;-78
2021/12/01 01:51:47;;;;;;;14.35;8.63;;;;;;;4.86;100.00;96561.38;5056150;28;20136;-78
2021/12/01 01:54:15;;;;;;;11.40;6.70;;;;;;;4.85;100.00;96551.75;5056388;28;20048;-78
2021/12/01 01:56:43;;;;;;;6.97;3.53;;;;;;;4.84;100.00;96557.44;5055756;28;20056;-78
2021/12/01 01:59:10;;;;;;;4.00;2.55;;;;;;;4.71;100.00;96556.41;5061876;28;20048;-78
2021/12/01 02:01:46;;;;;;;7.47;2.28;;;;;;;4.78;100.00;96547.91;5061573;28;20052;-78
2021/12/01 02:04:18;;;;;;;2.80;2.17;;;;;;;4.76;100.00;96540.19;5058281;28;20048;-79
2021/12/01 02:06:47;;;;;;;2.92;2.00;;;;;;;4.85;100.00;96532.22;5056550;28;20059;-79
2021/12/01 02:09:18;;;;;;;3.17;2.35;;;;;;;4.78;100.00;96532.63;5058427;28;20111;-79
2021/12/01 02:11:45;;;;;;;2.53;2.22;;;;;;;4.84;100.00;96517.22;5061625;28;20058;-78
2021/12/01 02:14:12;;;;;;;3.30;2.40;;;;;;;4.91;100.00;96509.53;5062931;28;20108;-78
2021/12/01 02:16:39;;;;;;;3.50;2.85;;;;;;;4.84;100.00;96498.44;5056719;28;20062;-78
2021/12/01 02:19:06;;;;;;;6.45;2.88;;;;;;;4.81;100.00;96494.50;5057417;28;20059;-78
2021/12/01 02:21:34;;;;;;;6.07;2.80;;;;;;;4.83;100.00;96496.84;5056714;28;20063;-77
2021/12/01 02:24:06;;;;;;;4.05;2.90;;;;;;;4.89;100.00;96492.97;5056527;28;20049;-78
2021/12/01 02:26:36;;;;;;;3.60;2.97;;;;;;;4.90;100.00;96495.31;5056073;28;20488;-79
2021/12/01 02:29:06;;;;;;;4.18;2.90;;;;;;;4.93;100.00;96492.03;5056963;28;20053;-78
2021/12/01 02:31:35;;;;;;;3.17;2.50;;;;;;;4.93;100.00;96491.25;5056243;28;20060;-78
2021/12/01 02:34:05;;;;;;;3.17;2.70;;;;;;;4.92;100.00;96479.75;5056834;28;20049;-80
2021/12/01 02:36:32;;;;;;;3.72;2.80;;;;;;;4.93;100.00;96475.16;5056532;28;20048;-79
2021/12/01 02:39:01;;;;;;;3.08;2.40;;;;;;;4.92;100.00;96476.25;5057246;28;20049;-79
2021/12/01 02:41:31;;;;;;;3.83;2.58;;;;;;;4.92;100.00;96460.97;5061285;28;20040;-79
2021/12/01 02:43:59;;;;;;;2.92;2.35;;;;;;;4.86;100.00;96458.72;5055158;28;20440;-78
2021/12/01 02:46:27;;;;;;;3.72;2.40;;;;;;;4.88;100.00;96446.59;5055761;28;20048;-78
2021/12/01 02:48:55;;;;;;;3.60;2.10;;;;;;;4.91;100.00;96445.19;5056160;28;20052;-78
2021/12/01 02:51:26;;;;;;;2.97;1.75;;;;;;;4.89;100.00;96442.03;5056082;28;20094;-78
2021/12/01 02:53:53;;;;;;;2.28;1.60;;;;;;;4.86;100.00;96435.38;5055245;28;20307;-79
2021/12/01 02:56:22;;;;;;;2.47;1.52;;;;;;;4.85;100.00;96427.66;5056178;28;20078;-79
2021/12/01 02:58:50;;;;;;;2.20;1.50;;;;;;;4.84;100.00;96416.13;5057523;28;20056;-78
2021/12/01 03:01:20;;;;;;;1.83;1.50;;;;;;;4.86;100.00;96426.53;5059253;28;20071;-78
2021/12/01 03:03:48;;;;;;;1.92;1.60;;;;;;;4.91;100.00;96418.38;5059692;28;20121;-79
2021/12/01 03:06:18;;;;;;;1.77;1.35;;;;;;;4.85;100.00;96414.25;5061311;28;20145;-80
2021/12/01 03:08:46;;;;;;;1.80;1.52;;;;;;;4.86;100.00;96419.28;5065269;28;20049;-78
2021/12/01 03:11:13;;;;;;;1.50;1.30;;;;;;;4.86;100.00;96397.84;5059559;28;20048;-78
2021/12/01 03:13:40;;;;;;;1.50;1.20;;;;;;;4.83;100.00;96414.53;5062070;28;20390;-79
2021/12/01 03:16:07;;;;;;;1.80;1.20;;;;;;;4.83;100.00;96406.50;5061906;28;20055;-78
2021/12/01 03:18:34;;;;;;;1.30;1.20;;;;;;;4.86;100.00;96407.78;5062551;28;20049;-79
2021/12/01 03:21:04;;;;;;;2.08;1.42;;;;;;;4.88;100.00;96403.69;5072987;28;20052;-78
2021/12/01 03:23:46;;;;;;;2.63;1.52;;;;;;;4.89;100.00;96399.13;5063112;28;20296;-79
2021/12/01 03:26:13;;;;;;;1.95;1.58;;;;;;;4.93;100.00;96384.78;5061256;28;20063;-78
2021/12/01 03:28:53;;;;;;;1.35;1.23;;;;;;;4.91;100.00;96392.34;5080086;28;20090;-79
2021/12/01 03:31:22;;;;;;;1.48;1.17;;;;;;;4.93;100.00;96378.63;5062205;28;20041;-77
2021/12/01 03:33:49;;;;;;;1.55;1.25;;;;;;;4.91;100.00;96373.59;5066829;28;20048;-78
2021/12/01 03:36:15;;;;;;;2.30;1.40;;;;;;;4.90;100.00;96374.66;5063720;28;20045;-79
2021/12/01 03:38:42;;;;;;;1.77;1.40;;;;;;;4.94;100.00;96364.94;5061095;28;20060;-80
2021/12/01 03:41:09;;;;;;;2.88;1.05;;;;;;;4.97;100.00;96355.47;5059833;28;20052;-79
2021/12/01 03:43:36;;;;;;;0.82;0.80;;;;;;;4.97;100.00;96356.25;5060838;28;20033;-78
2021/12/01 03:46:05;;;;;;;1.77;1.23;;;;;;;4.98;100.00;96355.16;5062226;28;20079;-79
2021/12/01 03:48:32;;;;;;;1.40;1.10;;;;;;;4.97;100.00;96353.59;5061926;28;20094;-79
2021/12/01 03:50:59;;;;;;;1.73;1.10;;;;;;;4.98;100.00;96349.78;5059916;28;20036;-77
2021/12/01 03:53:26;;;;;;;2.17;1.15;;;;;;;4.98;100.00;96343.66;5059318;28;20044;-79
2021/12/01 03:55:53;;;;;;;1.30;1.13;;;;;;;5.02;100.00;96349.97;5060284;28;20049;-78
2021/12/01 03:58:20;;;;;;;3.08;1.10;;;;;;;4.97;100.00;96342.84;5058701;28;20516;-79
2021/12/01 04:00:47;;;;;;;1.60;1.30;;;;;;;4.93;100.00;96330.34;5058858;28;20044;-79
2021/12/01 04:03:14;;;;;;;1.40;1.25;;;;;;;4.90;100.00;96323.72;5059419;28;20127;-79
2021/12/01 04:05:41;;;;;;;4.70;1.30;;;;;;;4.94;100.00;96327.38;5058647;28;20139;-80
2021/12/01 04:08:08;;;;;;;1.38;1.10;;;;;;;4.92;100.00;96326.13;5058435;28;20055;-79
2021/12/01 04:10:35;;;;;;;1.65;1.10;;;;;;;4.93;100.00;96314.28;5059167;28;20105;-78
2021/12/01 04:13:03;;;;;;;1.45;1.20;;;;;;;4.90;100.00;96310.31;5061805;28;20083;-81
2021/12/01 04:15:30;;;;;;;1.30;1.20;;;;;;;4.91;100.00;96308.44;5060481;28;20443;-79
2021/12/01 04:17:56;;;;;;;1.50;1.40;;;;;;;4.90;100.00;96307.63;5061354;28;20070;-79
2021/12/01 04:20:24;;;;;;;1.63;1.20;;;;;;;4.94;100.00;96295.22;5062795;28;20044;-79
2021/12/01 04:22:51;;;;;;;2.53;1.35;;;;;;;4.91;100.00;96290.47;5058567;28;20529;-79
2021/12/01 04:25:18;;;;;;;4.00;1.45;;;;;;;4.94;100.00;96276.44;5058182;28;20056;-79
2021/12/01 04:27:45;;;;;;;5.28;1.70;;;;;;;4.97;100.00;96278.50;5058922;28;20420;-79
2021/12/01 04:30:15;;;;;;;1.48;1.20;;;;;;;4.97;100.00;96278.50;5058895;28;20049;-79
2021/12/01 04:32:42;;;;;;;1.48;1.25;;;;;;;4.97;100.00;96267.78;5060101;28;20487;-79
2021/12/01 04:35:09;;;;;;;1.30;1.10;;;;;;;4.97;100.00;96278.50;5060694;28;20523;-80
2021/12/01 04:37:36;;;;;;;1.30;0.90;;;;;;;5.01;100.00;96274.09;5066131;28;20041;-79
2021/12/01 04:40:05;;;;;;;1.73;1.15;;;;;;;4.96;100.00;96279.59;5067530;28;20048;-79
2021/12/01 04:42:32;;;;;;;1.45;0.90;;;;;;;4.98;100.00;96258.63;5042470;28;20048;-81
2021/12/01 04:44:59;;;;;;;1.98;0.70;;;;;;;5.06;100.00;96267.00;5059177;28;20060;-81
2021/12/01 04:47:29;;;;;;;1.52;0.77;;;;;;;5.00;100.00;96263.69;5058649;28;20060;-79
2021/12/01 04:49:57;;;;;;;1.20;0.70;;;;;;;5.07;100.00;96265.91;5058828;28;20049;-81
2021/12/01 04:52:23;;;;;;;0.95;0.70;;;;;;;5.01;100.00;96271.41;5058916;28;20056;-80
2021/12/01 04:54:50;;;;;;;3.83;0.80;;;;;;;5.00;100.00;96266.38;5070450;28;20064;-78
2021/12/01 04:57:17;;;;;;;3.63;0.90;;;;;;;5.02;100.00;96264.94;5058789;28;20056;-79
2021/12/01 04:59:44;;;;;;;0.80;0.70;;;;;;;4.99;100.00;96262.09;5058441;28;20048;-78
2021/12/01 05:02:11;;;;;;;1.63;0.82;;;;;;;5.02;100.00;96253.44;5057874;28;20053;-79
2021/12/01 05:04:41;;;;;;;1.67;0.60;;;;;;;5.00;100.00;96247.59;5076229;28;20485;-79
2021/12/01 05:07:09;;;;;;;0.73;0.60;;;;;;;4.98;100.00;96245.22;5063315;28;20036;-80
2021/12/01 05:09:36;;;;;;;1.17;0.40;;;;;;;4.98;100.00;96233.72;5066729;28;20045;-79
2021/12/01 05:12:06;;;;;;;1.85;0.88;;;;;;;4.99;100.00;96235.28;5059172;28;20070;-80
2021/12/01 05:14:37;;;;;;;1.27;0.63;;;;;;;4.96;100.00;96225.97;5059300;28;20044;-80
2021/12/01 05:17:07;;;;;;;1.63;0.65;;;;;;;4.91;100.00;96247.56;5061121;28;20051;-79
2021/12/01 05:19:35;;;;;;;3.33;0.77;;;;;;;4.91;100.00;96239.53;5066691;28;20056;-78
2021/12/01 05:22:03;;;;;;;2.53;0.60;;;;;;;4.85;100.00;96240.00;5065761;28;20623;-79
2021/12/01 05:24:30;;;;;;;1.13;0.65;;;;;;;4.95;100.00;96248.53;5060503;28;20041;-79
2021/12/01 05:27:02;;;;;;;1.02;0.68;;;;;;;4.89;100.00;96241.72;5059081;28;20060;-78
2021/12/01 05:29:28;;;;;;;1.05;0.70;;;;;;;4.93;100.00;96244.56;5075113;28;20048;-76
2021/12/01 05:31:56;;;;;;;1.48;0.75;;;;;;;4.90;100.00;96239.84;5057767;28;20151;-78
2021/12/01 05:34:24;;;;;;;1.10;0.77;;;;;;;4.90;100.00;96234.50;5057590;28;20048;-78
2021/12/01 05:36:51;;;;;;;1.00;0.70;;;;;;;4.84;100.00;96223.13;5059525;28;20049;-77
2021/12/01 05:39:18;;;;;;;2.10;0.70;;;;;;;4.80;100.00;96224.06;5059163;28;20060;-79
2021/12/01 05:41:47;;;;;;;1.35;0.70;;;;;;;4.87;100.00;96217.13;5057795;28;20131;-78
2021/12/01 05:44:14;;;;;;;2.70;0.60;;;;;;;4.75;100.00;96206.22;5059318;28;20051;-78
2021/12/01 05:46:41;;;;;;;1.75;0.50;;;;;;;4.82;100.00;96198.53;5059121;28;20119;-78
2021/12/01 05:49:07;;;;;;;1.15;0.60;;;;;;;4.87;100.00;96200.25;5059558;28;20062;-78
2021/12/01 05:51:34;;;;;;;1.33;0.60;;;;;;;4.81;100.00;96193.44;5059586;28;20048;-78
2021/12/01 05:54:02;;;;;;;0.70;0.60;;;;;;;4.80;100.00;96191.91;5059303;28;20045;-77
2021/12/01 05:56:30;;;;;;;1.80;0.50;;;;;;;4.84;100.00;96188.25;5059297;28;20469;-77
2021/12/01 05:58:57;;;;;;;1.25;0.68;;;;;;;4.78;100.00;96178.00;5043053;28;20083;-78
2021/12/01 06:01:25;;;;;;;2.35;0.70;;;;;;;4.88;100.00;96169.66;5075978;28;20055;-79
2021/12/01 06:03:52;;;;;;;2.25;0.60;;;;;;;4.88;100.00;96175.81;5059061;28;20064;-77
2021/12/01 06:06:18;;;;;;;2.83;0.88;;;;;;;4.90;100.00;96183.53;5059567;28;20054;-77
2021/12/01 06:08:45;;;;;;;2.28;0.70;;;;;;;4.86;100.00;96153.88;5060834;28;20063;-79
2021/12/01 06:11:14;;;;;;;1.00;0.80;;;;;;;4.91;100.00;96156.41;5059970;28;20064;-78
2021/12/01 06:13:41;;;;;;;1.10;0.90;;;;;;;4.91;100.00;96137.66;5060940;28;20103;-78
2021/12/01 06:16:08;;;;;;;1.20;0.80;;;;;;;4.92;100.00;96147.28;5057437;28;20067;-79
2021/12/01 06:18:35;;;;;;;1.20;0.90;;;;;;;4.85;100.00;96122.03;5058592;28;20044;-79
2021/12/01 06:21:03;;;;;;;2.25;0.98;;;;;;;4.90;100.00;96111.94;5059496;28;20045;-81
2021/12/01 06:23:30;;;;;;;1.80;0.80;;;;;;;4.96;100.00;96109.88;5056887;28;20059;-78
2021/12/01 06:25:56;;;;;;;2.33;1.02;;;;;;;4.90;100.00;96109.25;5058066;28;20060;-80
2021/12/01 06:28:23;;;;;;;2.65;0.90;;;;;;;4.92;100.00;96120.47;5058377;28;20057;-79
2021/12/01 06:30:50;;;;;;;1.58;1.00;;;;;;;4.96;100.00;96118.72;5056748;28;20116;-80
2021/12/01 06:33:22;;;;;;;3.83;1.10;;;;;;;4.94;100.00;96106.72;5058863;28;20447;-79
2021/12/01 06:35:49;;;;;;;1.20;1.00;;;;;;;5.00;100.00;96106.28;5061981;28;20058;-79
2021/12/01 06:38:16;;;;;;;2.25;1.10;;;;;;;5.00;100.00;96105.47;5062190;28;20056;-79
2021/12/01 06:40:45;;;;;;;1.58;1.20;;;;;;;4.98;100.00;96103.09;5062460;28;20151;-79
2021/12/01 06:43:13;;;;;;;1.75;1.25;;;;;;;5.00;100.00;96092.06;5067912;28;20419;-80
2021/12/01 06:45:40;;;;;;;1.83;1.23;;;;;;;4.97;100.00;96074.72;5061126;28;20123;-80
2021/12/01 06:48:07;;;;;;;2.33;1.13;;;;;;;5.04;100.00;96063.50;5059596;28;20048;-84
2021/12/01 06:50:34;;;;;;;1.52;0.98;;;;;;;5.17;100.00;96075.16;5059621;28;20051;-83
2021/12/01 06:53:01;;;;;;;2.05;1.40;;;;;;;5.18;100.00;96069.50;5062298;28;20048;-83
2021/12/01 06:55:27;;;;;;;1.33;1.08;;;;;;;5.22;100.00;96058.91;5073915;28;20047;-83
2021/12/01 06:57:59;;;;;;;2.00;1.10;;;;;;;5.24;100.00;96060.16;5062504;28;20053;-83
2021/12/01 07:00:26;;;;;;;1.45;1.10;;;;;;;5.24;100.00;96064.75;5061081;28;20056;-81
2021/12/01 07:02:53;;;;;;;1.38;1.25;;;;;;;5.21;100.00;96035.88;5062471;28;20060;-82
2021/12/01 07:05:20;;;;;;;1.83;1.38;;;;;;;5.32;100.00;96010.25;5064563;28;20048;-82
2021/12/01 07:07:47;;;;;;;2.38;1.40;;;;;;;5.29;100.00;96019.75;5069555;28;20043;-83
2021/12/01 07:10:15;;;;;;;1.55;1.20;;;;;;;5.33;100.00;96019.91;5050418;28;20040;-82
2021/12/01 07:12:43;;;;;;;1.63;1.10;;;;;;;5.34;100.00;96024.16;5054522;28;20049;-83
2021/12/01 07:15:13;;;;;;;2.35;1.10;;;;;;;5.30;100.00;96021.34;5050572;28;20420;-79
2021/12/01 07:17:45;;;;;;;1.67;1.17;;;;;;;5.25;100.00;96024.19;5085397;28;20044;-79
2021/12/01 07:20:14;;;;;;;5.10;1.30;;;;;;;5.26;100.00;96038.41;5054821;28;20059;-80
2021/12/01 07:22:44;;;;;;;2.38;1.20;;;;;;;5.25;100.00;96020.72;5044516;28;20211;-80
2021/12/01 07:25:12;;;;;;;1.67;1.42;;;;;;;5.22;100.00;96026.72;5046134;28;20056;-79
2021/12/01 07:27:40;;;;;;;2.30;1.50;;;;;;;5.22;100.00;96037.44;5052515;28;20082;-80
2021/12/01 07:30:08;;;;;;;2.35;1.58;;;;;;;5.24;100.00;96032.56;5048936;28;20049;-80
2021/12/01 07:32:35;;;;;;;2.15;1.60;;;;;;;5.30;100.00;96047.38;5053149;28;20059;-81
2021/12/01 07:35:03;;;;;;;2.90;1.70;;;;;;;5.29;100.00;96054.63;5062344;28;20413;-79
2021/12/01 07:37:37;;;;;;;2.05;1.70;;;;;;;5.29;100.00;96043.13;5061956;28;20048;-77
2021/12/01 07:40:05;;;;;;;3.60;1.77;;;;;;;5.34;100.00;96051.00;5042095;28;20079;-79
2021/12/01 07:42:31;;;;;;;3.15;1.90;;;;;;;5.31;100.00;96048.94;5054161;28;20049;-79
2021/12/01 07:45:05;;;;;;;3.05;2.00;;;;;;;5.29;100.00;96051.94;5055811;28;20112;-79
2021/12/01 07:47:32;;;;;;;4.15;2.40;;;;;;;5.29;100.00;96027.78;5060336;28;20053;-79
2021/12/01 07:49:59;;;;;;;3.05;2.03;;;;;;;5.28;100.00;96025.44;5048709;28;20044;-79
2021/12/01 07:52:26;;;;;;;4.18;2.80;;;;;;;5.29;100.00;96027.78;5055113;28;20071;-80
2021/12/01 07:54:53;;;;;;;4.07;2.67;;;;;;;5.30;100.00;96020.53;5095698;28;20052;-79
2021/12/01 07:57:20;;;;;;;5.60;2.80;;;;;;;5.33;100.00;96009.16;5094508;28;20060;-79
2021/12/01 07:59:46;;;;;;;4.43;2.42;;;;;;;5.29;100.00;96030.47;5094161;28;20572;-79
2021/12/01 08:02:13;;;;;;;2.95;2.50;;;;;;;5.28;100.00;96034.28;5095286;28;20086;-79
2021/12/01 08:04:40;;;;;;;4.10;3.05;;;;;;;5.28;100.00;96036.97;5095039;28;20044;-78
2021/12/01 08:07:07;;;;;;;3.72;2.55;;;;;;;5.29;100.00;96035.06;5062579;28;20045;-79
2021/12/01 08:09:34;;;;;;;3.90;3.00;;;;;;;5.30;100.00;96024.00;5097290;28;20059;-78
2021/12/01 08:12:01;;;;;;;6.72;3.33;;;;;;;5.34;100.00;96014.19;5061284;28;20054;-79
2021/12/01 08:14:28;;;;;;;3.63;2.90;;;;;;;5.27;100.00;96003.19;5060843;28;20053;-79
2021/12/01 08:16:55;;;;;;;6.63;3.47;;;;;;;5.27;100.00;96013.13;5061450;28;20102;-79
2021/12/01 08:19:21;;;;;;;4.65;3.20;;;;;;;5.32;100.00;95994.97;5078866;28;20049;-79
2021/12/01 08:21:51;;;;;;;4.43;2.80;;;;;;;5.30;100.00;95983.78;5089808;28;20067;-79
2021/12/01 08:24:19;;;;;;;3.60;2.65;;;;;;;5.40;100.00;96004.09;5062306;28;20048;-79
2021/12/01 08:26:46;;;;;;;4.07;2.72;;;;;;;5.41;100.00;95985.00;5061863;28;20488;-80
2021/12/01 08:29:15;;;;;;;3.72;2.40;;;;;;;5.41;100.00;95984.22;5065081;28;20047;-82
2021/12/01 08:31:42;;;;;;;3.80;2.50;;;;;;;5.48;100.00;95992.53;5064243;28;20075;-79
2021/12/01 08:34:10;;;;;;;2.85;2.00;;;;;;;5.56;100.00;95994.41;5059616;28;20048;-79
2021/12/01 08:36:37;;;;;;;2.40;1.90;;;;;;;5.57;100.00;95969.91;5060117;28;20049;-79
2021/12/01 08:39:04;;;;;;;2.03;1.65;;;;;;;5.59;100.00;95961.56;5094686;28;20056;-80
2021/12/01 08:41:31;;;;;;;2.90;1.90;;;;;;;5.72;100.00;95954.38;5101949;28;20051;-78
2021/12/01 08:43:58;;;;;;;1.98;1.55;;;;;;;5.76;100.00;95949.94;5065238;28;20051;-79
2021/12/01 08:46:25;;;;;;;2.60;1.50;;;;;;;5.70;100.00;95937.81;5052173;28;20120;-80
2021/12/01 08:48:52;;;;;;;2.28;1.40;;;;;;;5.76;100.00;95931.94;5048285;28;20037;-80
2021/12/01 08:51:19;;;;;;;3.40;1.60;;;;;;;5.75;100.00;95921.53;5046658;28;20053;-79
2021/12/01 08:53:45;;;;;;;2.85;1.63;;;;;;;5.80;100.00;95932.88;5052705;28;20079;-79
2021/12/01 08:56:15;;;;;;;3.08;1.45;;;;;;;5.84;100.00;95931.09;5054778;28;20055;-78
2021/12/01 08:58:43;;;;;;;3.20;1.35;;;;;;;5.97;100.00;95907.81;5046516;28;20076;-79
2021/12/01 09:01:10;;;;;;;2.17;1.23;;;;;;;5.92;100.00;95892.69;5082978;28;20126;-79
2021/12/01 09:03:40;;;;;;;2.40;1.55;;;;;;;5.92;100.00;95895.38;5065973;28;20293;-79
2021/12/01 09:06:07;;;;;;;1.80;1.20;;;;;;;5.99;100.00;95865.28;5087453;28;20055;-80
2021/12/01 09:08:33;;;;;;;1.77;0.90;;;;;;;6.01;100.00;95869.22;5051691;28;20405;-79
2021/12/01 09:11:03;;;;;;;1.50;1.05;;;;;;;6.08;100.00;95880.25;5054101;28;20516;-79
2021/12/01 09:13:35;;;;;;;2.60;1.00;;;;;;;6.15;100.00;95863.59;5039704;28;20059;-79
2021/12/01 09:16:03;;;;;;;1.15;0.88;;;;;;;6.12;100.00;95862.34;5052196;28;20401;-79
2021/12/01 09:18:30;;;;;;;3.08;0.80;;;;;;;6.19;100.00;95857.22;5085234;28;20124;-80
2021/12/01 09:20:58;;;;;;;0.95;0.60;;;;;;;6.12;100.00;95856.19;5085193;28;20485;-79
2021/12/01 09:23:25;;;;;;;1.63;0.50;;;;;;;6.14;100.00;95846.69;5041497;28;20398;-79
2021/12/01 09:25:53;;;;;;;1.13;0.60;;;;;;;6.22;100.00;95863.84;5044496;28;20055;-80
2021/12/01 09:28:25;;;;;;;2.92;0.57;;;;;;;6.16;100.00;95857.09;5050889;28;20155;-79
2021/12/01 09:30:54;;;;;;;0.80;0.55;;;;;;;6.20;100.00;95858.78;5052116;28;20072;-79
2021/12/01 09:33:21;;;;;;;0.60;0.40;;;;;;;6.20;100.00;95863.38;5049505;28;20053;-79
2021/12/01 09:35:51;;;;;;;1.95;0.70;;;;;;;6.26;100.00;95854.00;5078745;28;20098;-78
2021/12/01 09:38:19;;;;;;;0.50;0.40;;;;;;;6.22;100.00;95856.56;5074917;28;20052;-78
2021/12/01 09:40:51;;;;;;;1.10;0.60;;;;;;;6.20;100.00;95856.13;5058433;28;20056;-78
2021/12/01 09:43:22;;;;;;;0.95;0.50;;;;;;;6.25;100.00;95853.22;5059608;28;20048;-79
2021/12/01 09:45:49;;;;;;;0.43;0.40;;;;;;;6.24;100.00;95848.97;5059727;28;20049;-78
2021/12/01 09:48:16;;;;;;;2.72;0.63;;;;;;;6.22;100.00;95840.44;5059780;28;20079;-78
2021/12/01 09:50:53;;;;;;;2.15;0.95;;;;;;;6.27;100.00;95856.34;5062005;28;20056;-77
2021/12/01 10:04:29;;;;;;;1.80;1.00;;;;;;;6.21;100.00;95800.50;5044220;28;20126;-80
2021/12/01 10:08:12;;;;;;;1.67;0.65;;;;;;;6.26;100.00;95829.84;4943775;28;20062;-78
2021/12/01 10:10:51;;;;;;;1.20;0.82;;;;;;;6.21;100.00;95797.81;4988850;28;20061;-80
2021/12/01 10:13:37;;;;;;;2.90;0.88;;;;;;;6.33;100.00;95802.41;5060566;28;20048;-80
2021/12/01 10:16:10;;;;;;;1.00;0.90;;;;;;;6.36;100.00;95807.91;5061828;28;20049;-80
2021/12/01 10:18:46;;;;;;;1.70;0.77;;;;;;;6.33;100.00;95760.22;5068119;28;20047;-78
2021/12/01 10:21:59;;;;;;;1.80;1.00;;;;;;;6.42;100.00;95766.28;5063156;28;20257;-78
2021/12/01 10:24:49;;;;;;;3.42;0.90;;;;;;;6.37;100.00;95776.47;5052475;28;20098;-80
2021/12/01 10:27:22;;;;;;;4.05;0.80;;;;;;;6.42;100.00;95758.22;5077419;28;20128;-78
2021/12/01 10:29:55;;;;;;;1.42;0.70;;;;;;;6.51;100.00;95755.41;5069177;28;20131;-77
2021/12/01 10:32:42;;;;;;;2.60;0.70;;;;;;;6.59;100.00;95749.16;5068587;28;20439;-78
2021/12/01 10:36:11;;;;;;;;;;;;;;;;;;;;;
2021/12/01 10:38:47;;;;;;;4.88;0.73;;;;;;;6.60;100.00;95742.69;5029419;28;20044;-78
2021/12/01 10:41:40;;;;;;;0.77;0.52;;;;;;;6.56;100.00;95726.41;5011221;28;20041;-80
2021/12/01 10:44:31;;;;;;;1.20;0.70;;;;;;;6.77;100.00;95734.38;5010110;28;20058;-79
2021/12/01 10:47:47;;;;;;;;;;;;;;;;;;;;;
2021/12/01 10:50:43;;;;;;;1.42;0.70;;;;;;;6.99;100.00;95733.16;5011869;28;20381;-79
2021/12/01 10:56:45;;;;;;;1.27;0.60;;;;;;;6.95;100.00;95705.34;5052452;28;20044;-79
2021/12/01 10:59:47;;;;;;;4.53;0.90;;;;;;;6.99;100.00;95690.91;5076375;28;20044;-79
2021/12/01 11:02:16;;;;;;;2.22;0.70;;;;;;;6.93;100.00;95675.31;5081895;28;20062;-79
2021/12/01 11:04:45;;;;;;;2.78;0.80;;;;;;;7.13;100.00;95682.44;5081728;28;20066;-82
2021/12/01 11:07:33;;;;;;;2.75;0.85;;;;;;;7.11;100.00;95665.88;5082852;28;20044;-78
2021/12/01 11:10:18;;;;;;;1.58;0.60;;;;;;;7.13;100.00;95695.91;5081482;28;20450;-80
2021/12/01 11:12:53;;;;;;;2.50;0.82;;;;;;;7.24;100.00;95687.03;5059205;28;20397;-78
2021/12/01 11:19:20;;;;;;;1.38;0.50;;;;;;;7.22;100.00;95653.50;5046031;28;20041;-80
2021/12/01 11:25:28;;;;;;;1.42;0.55;;;;;;;7.16;100.00;95622.56;5047381;28;20091;-80
2021/12/01 11:28:05;;;;;;;2.10;0.68;;;;;;;7.11;100.00;95636.28;5070415;28;20492;-80
2021/12/01 11:30:48;;;;;;;;;;;;;;;;;;;;;
2021/12/01 11:33:28;;;;;;;2.95;0.85;;;;;;;7.11;100.00;95642.44;5081766;28;20037;-82
2021/12/01 11:36:28;;;;;;;1.50;0.60;;;;;;;7.16;100.00;95620.69;5080832;28;20045;-80
2021/12/01 11:39:22;;;;;;;2.50;0.88;;;;;;;7.06;100.00;95617.69;5066722;28;20155;-79
2021/12/01 11:42:50;;;;;;;1.75;0.80;;;;;;;7.15;100.00;95621.03;5052892;28;20143;-81
2021/12/01 11:53:33;;;;;;;1.90;0.80;;;;;;;7.29;100.00;95608.75;5032002;22;20045;-80
2021/12/01 11:56:05;;;;;;;1.40;0.57;;;;;;;7.36;100.00;95619.69;5046449;28;20053;-81
2021/12/01 11:58:40;;;;;;;1.02;0.70;;;;;;;7.33;100.00;95608.84;5068210;28;20098;-84
2021/12/01 12:01:30;;;;;;;3.10;0.80;;;;;;;7.45;100.00;95596.13;5043553;28;20056;-81
2021/12/01 12:04:00;;;;;;;1.33;0.47;;;;;;;7.36;100.00;95600.84;5044888;28;20064;-82
2021/12/01 12:06:36;;;;;;;1.02;0.50;;;;;;;7.29;100.00;95597.97;5061846;28;20053;-83
2021/12/01 12:09:08;;;;;;;1.75;0.65;;;;;;;7.43;100.00;95611.03;5060881;28;20474;-83
2021/12/01 12:11:35;;;;;;;2.47;0.70;;;;;;;7.36;100.00;95578.53;5040362;28;20152;-81
2021/12/01 12:14:04;;;;;;;1.98;0.80;;;;;;;7.41;100.00;95570.22;5059638;28;20068;-80
2021/12/01 12:16:31;;;;;;;0.90;0.60;;;;;;;7.42;100.00;95577.16;5041565;28;20049;-83
2021/12/01 12:18:59;;;;;;;2.15;0.43;;;;;;;7.51;100.00;95578.56;5064196;28;20099;-82
2021/12/01 12:24:15;;;;;;;0.90;0.60;;;;;;;7.46;100.00;95556.50;5061672;28;20072;-82
2021/12/01 12:26:45;;;;;;;0.88;0.60;;;;;;;7.51;100.00;95545.47;5059750;28;20064;-83
2021/12/01 12:29:15;;;;;;;0.88;0.50;;;;;;;7.53;100.00;95548.63;5064608;28;20060;-82
2021/12/01 12:31:49;;;;;;;4.20;0.47;;;;;;;7.51;100.00;95540.09;5063289;28;20155;-82